• Join FlightAware (Why Join?)
  • Login
  • US Flag 
10:02PM EDT


 

Airport Tracker/Info


-or-


 

Live Flight TrackerFlight Track Log ✈ IMG845 ✈ 21-Aug-2013 ✈ KSPA - KFTY

Flight Track Log - Related Links

Times and Time Zones

All times are in EDT time to prevent confusion due to time zone crossing. See the IMG845 flight status page for this flight to view local times or setup timezone preferences in your user account.

Time Position Orientation Groundspeed Altitude Reporting Facility
EDT Latitude Longitude Course Direction KTS MPH feet Rate Location/Type
10:53AM 34.9433 -82.2487 256° West  Level FlightAware Approximate
10:54AM 34.9332 -82.2970 256° West  Level FlightAware Approximate
10:55AM 34.9230 -82.3453 256° West  Level FlightAware Approximate
10:56AM 34.9129 -82.3936 256° West  Level FlightAware Approximate
10:57AM 34.9027 -82.4418 256° West  Level FlightAware Approximate
10:58AM 34.8925 -82.4901 256° West  Level FlightAware Approximate
10:59AM 34.8820 -82.5383 251° West  Level FlightAware Approximate
11:00AM 34.8688 -82.5854 251° West  Level FlightAware Approximate
11:00AM 34.8592 -82.4819 251° West 151 174 5,900  Level Atlanta Center
11:01AM 34.8557 -82.6326 251° West  Level FlightAware Approximate
11:01AM 34.8639 -82.5300 277° West 147 169 5,900  Level Atlanta Center
11:02AM 34.8425 -82.6798 251° West  Level FlightAware Approximate
11:02AM 34.8647 -82.5831 271° West 158 182 5,900  Level Atlanta Center
11:03AM 34.8294 -82.7269 251° West  Level FlightAware Approximate
11:03AM 34.8589 -82.6364 262° West 152 175 5,900  Level Atlanta Center
11:04AM 34.8162 -82.7740 251° West  Level FlightAware Approximate
11:04AM 34.8469 -82.6847 253° West 150 173 5,900  Level Atlanta Center
11:05AM 34.8029 -82.8211 251° West  Level FlightAware Approximate
11:05AM 34.8308 -82.7281 246° West 149 171 6,000  Level Atlanta Center
11:06AM 34.8144 -82.7764 248° West 154 177 6,000 -60 Level Atlanta Center
11:07AM 34.7942 -82.8197 240° Southwest 154 177 5,900 -60 Descending Atlanta Center
11:08AM 34.7736 -82.8656 241° Southwest 154 177 5,900  Level Atlanta Center
11:09AM 34.7533 -82.9086 240° Southwest 154 177 5,900  Level Atlanta Center
11:10AM 34.7328 -82.9544 241° Southwest 154 177 6,000  Climbing Atlanta Center
11:11AM 34.7122 -82.9953 239° Southwest 154 177 5,900 -60 Descending Atlanta Center
11:12AM 34.6939 -83.0383 243° Southwest 154 177 5,900  Level Atlanta Center
11:13AM 34.6733 -83.0842 241° Southwest 154 177 5,900  Level Atlanta Center
11:14AM 34.6528 -83.1272 240° Southwest 154 177 5,900  Level Atlanta Center
11:15AM 34.6344 -83.1703 243° Southwest 159 183 5,900  Level Atlanta Center
11:16AM 34.6158 -83.2133 242° Southwest 159 183 5,900  Level Atlanta Center
11:17AM 34.5953 -83.2539 238° Southwest 154 177 5,900  Level Atlanta Center
11:18AM 34.5789 -83.2944 244° Southwest 154 177 6,000  Climbing Atlanta Center
11:19AM 34.5603 -83.3350 241° Southwest 154 177 6,000 -60 Level Atlanta Center
11:20AM 34.5417 -83.3781 242° Southwest 149 171 5,900 -60 Descending Atlanta Center
11:21AM 34.5189 -83.4211 237° Southwest 149 171 5,900  Level Atlanta Center
11:22AM 34.5047 -83.4614 247° West 149 171 6,000  Climbing Atlanta Center
11:23AM 34.4819 -83.5069 239° Southwest 144 166 6,000  Level Atlanta Center
11:24AM 34.4653 -83.5475 244° Southwest 144 166 6,000  Level Atlanta Center
11:25AM 34.4447 -83.5981 244° Southwest 144 166 6,000 -60 Level Atlanta Center
11:26AM 34.4281 -83.6408 245° Southwest 144 166 5,900  Descending Atlanta Center
11:27AM 34.4094 -83.6811 241° Southwest 144 166 6,000  Climbing Atlanta Center
11:28AM 34.3908 -83.7267 244° Southwest 144 166 6,000 -60 Level Atlanta Center
11:29AM 34.3722 -83.7719 244° Southwest 144 166 5,900  Descending Atlanta Center
11:30AM 34.3533 -83.8147 242° Southwest 149 171 6,000  Climbing Atlanta Center
11:31AM 34.3347 -83.8603 244° Southwest 149 171 5,900  Descending Atlanta Center
11:32AM 34.3181 -83.9031 245° Southwest 149 171 6,000  Climbing Atlanta Center
11:33AM 34.2992 -83.9458 242° Southwest 149 171 6,000 -60 Level Atlanta Center
11:34AM 34.2825 -83.9911 246° West 156 180 5,900 -60 Descending Atlanta Center
11:35AM 34.2639 -84.0314 241° Southwest 156 180 5,900  Level Atlanta Center
11:37AM 34.2333 -84.1167 247° West 147 169 6,000  Climbing Atlanta TRACON
11:38AM 34.2167 -84.1500 239° Southwest 146 168 5,900 -120 Descending Atlanta TRACON
11:39AM 34.2000 -84.2000 248° West 151 174 5,800 -300 Descending Atlanta TRACON
11:40AM 34.1667 -84.2333 220° Southwest 156 180 5,400 -480 Descending Atlanta TRACON
11:41AM 34.1333 -84.2667 220° Southwest 155 178 4,900 -540 Descending Atlanta TRACON
11:42AM 34.1000 -84.3000 220° Southwest 163 188 4,300 -420 Descending Atlanta TRACON
11:43AM 34.0667 -84.3333 220° Southwest 158 182 4,000 -180 Descending Atlanta TRACON
11:44AM 34.0167 -84.3833 220° Southwest 148 170 4,000  Level Atlanta TRACON
11:45AM 34.0000 -84.4000 220° Southwest 144 166 4,000  Level Atlanta TRACON
11:46AM 33.9667 -84.4333 220° Southwest 146 168 4,000  Level Atlanta TRACON
11:47AM 33.9333 -84.4667 220° Southwest 150 173 4,000  Level Atlanta TRACON
11:48AM 33.9167 -84.5000 239° Southwest 148 170 4,000 -300 Level Atlanta TRACON
11:49AM 33.8833 -84.5333 220° Southwest 149 171 3,500 -540 Descending Atlanta TRACON
11:50AM 33.8667 -84.5833 248° West 152 175 3,000 -240 Descending Atlanta TRACON
11:51AM 33.8333 -84.6333 231° Southwest 139 160 3,000 -300 Level Atlanta TRACON
11:52AM 33.8000 -84.6333 180° South 132 152 2,400 -540 Descending Atlanta TRACON
11:53AM 33.7833 -84.6000 121° Southeast 98 113 1,900 -480 Descending Atlanta TRACON
11:54AM 33.7667 -84.5833 140° Southeast 93 107 1,500 -420 Descending Atlanta TRACON
11:55AM 33.7833 -84.5500 59° Northeast 102 117 1,200 -420 Descending Atlanta TRACON
11:57AM 33.7791 -84.5214 104° East  Level Estimated
12:04PM 33.7791 -84.5214 104° East  Level Estimated